Time;durP1;ratioP1;P1;durP2;ratioP2;P2;SDS_P1;SDS_P2;PMS_P1;PMS_P2;Temp;Humidity;BMP_temperature;BMP_pressure;BME280_temperature;BME280_humidity;BME280_pressure;Samples;Min_cycle;Max_cycle;Signal;HPM_P1;HPM_P2
2023/08/07 00:00:46;;;;;;;927.43;866.40;;;12.70;99.90;;;;;;4993979;28;20457;-68
2023/08/07 00:03:18;;;;;;;922.93;862.20;;;12.70;99.90;;;;;;4993066;28;20504;-67
2023/08/07 00:05:46;;;;;;;920.23;859.20;;;12.70;99.90;;;;;;4993385;28;20513;-67
2023/08/07 00:08:16;;;;;;;917.93;855.63;;;12.60;99.90;;;;;;4993531;28;20447;-68
2023/08/07 00:10:43;;;;;;;921.53;859.13;;;12.60;99.90;;;;;;4993091;28;20454;-67
2023/08/07 00:13:10;;;;;;;918.07;855.70;;;12.60;99.90;;;;;;4992903;28;20458;-67
2023/08/07 00:15:39;;;;;;;905.53;844.73;;;12.60;99.90;;;;;;4993339;28;20977;-66
2023/08/07 00:18:06;;;;;;;916.27;853.77;;;12.60;99.90;;;;;;4997483;28;20500;-65
2023/08/07 00:20:33;;;;;;;914.83;852.83;;;12.60;99.90;;;;;;5012603;28;20460;-66
2023/08/07 00:22:59;;;;;;;907.70;847.50;;;12.50;99.90;;;;;;5012396;28;20459;-66
2023/08/07 00:25:28;;;;;;;908.80;849.50;;;12.60;99.90;;;;;;5012439;28;20467;-67
2023/08/07 00:27:55;;;;;;;905.27;846.47;;;12.60;99.90;;;;;;5012751;28;20449;-68
2023/08/07 00:30:22;;;;;;;896.50;838.70;;;12.60;99.90;;;;;;5012574;28;20476;-66
2023/08/07 00:32:48;;;;;;;906.07;847.40;;;12.60;99.90;;;;;;5012512;28;20968;-66
2023/08/07 00:35:15;;;;;;;904.67;845.47;;;12.60;99.90;;;;;;5002754;28;20450;-66
2023/08/07 00:37:42;;;;;;;893.93;837.43;;;12.60;99.90;;;;;;4992518;28;20478;-66
2023/08/07 00:40:10;;;;;;;892.80;837.93;;;12.60;99.90;;;;;;4992587;28;20457;-65
2023/08/07 00:42:38;;;;;;;894.53;839.37;;;12.50;99.90;;;;;;4992824;28;20458;-66
2023/08/07 00:45:06;;;;;;;888.17;834.00;;;12.50;99.90;;;;;;4992940;28;20600;-66
2023/08/07 00:47:33;;;;;;;893.70;839.70;;;12.50;99.90;;;;;;4992881;28;20541;-66
2023/08/07 00:50:01;;;;;;;899.60;844.60;;;12.50;99.90;;;;;;4992555;28;20504;-67
2023/08/07 00:52:28;;;;;;;902.97;847.83;;;12.50;99.90;;;;;;4992591;28;20451;-65
2023/08/07 00:54:55;;;;;;;911.57;855.17;;;12.40;99.90;;;;;;4992463;28;20457;-65
2023/08/07 00:57:22;;;;;;;910.83;854.37;;;12.50;99.90;;;;;;4992760;28;20461;-66
2023/08/07 00:59:50;;;;;;;903.70;847.43;;;12.50;99.90;;;;;;4992720;28;20500;-65
2023/08/07 01:02:17;;;;;;;898.60;842.57;;;12.50;99.90;;;;;;4992664;28;20545;-66
2023/08/07 01:04:45;;;;;;;891.80;836.70;;;12.50;99.90;;;;;;4993572;28;20454;-64
2023/08/07 01:07:11;;;;;;;892.60;838.50;;;12.50;99.90;;;;;;4992471;28;20969;-66
2023/08/07 01:09:38;;;;;;;899.30;844.10;;;12.40;99.90;;;;;;4992632;28;20450;-66
2023/08/07 01:12:14;;;;;;;891.60;836.80;;;12.50;99.90;;;;;;4992589;28;20451;-66
2023/08/07 01:14:50;;;;;;;889.40;827.73;;;12.40;99.90;;;;;;4992691;28;20817;-66
2023/08/07 01:17:20;;;;;;;846.20;786.20;;;12.40;99.90;;;;;;4992377;28;20454;-66
2023/08/07 01:19:48;;;;;;;822.63;763.43;;;12.40;99.90;;;;;;4992251;28;20489;-67
2023/08/07 01:22:18;;;;;;;851.73;791.50;;;12.40;99.90;;;;;;4993609;28;20451;-65
2023/08/07 01:24:46;;;;;;;916.47;853.47;;;12.40;99.90;;;;;;4992560;28;20450;-66
2023/08/07 01:27:25;;;;;;;864.30;803.60;;;12.30;99.90;;;;;;4992422;28;21046;-66
2023/08/07 01:29:58;;;;;;;829.07;769.37;;;12.40;99.90;;;;;;4992417;28;20477;-65
2023/08/07 01:32:29;;;;;;;761.10;704.90;;;12.40;99.90;;;;;;4992195;28;20485;-66
2023/08/07 01:34:58;;;;;;;780.07;722.37;;;12.30;99.90;;;;;;4992348;28;20454;-66
2023/08/07 01:37:29;;;;;;;805.43;746.53;;;12.40;99.90;;;;;;4992436;28;20450;-66
2023/08/07 01:39:58;;;;;;;767.07;710.47;;;12.40;99.90;;;;;;4992515;28;20478;-66
2023/08/07 01:42:25;;;;;;;787.03;728.97;;;12.40;99.90;;;;;;4992115;28;20454;-66
2023/08/07 01:44:52;;;;;;;738.47;683.70;;;12.40;99.90;;;;;;4992239;28;20464;-65
2023/08/07 01:47:19;;;;;;;803.90;744.70;;;12.40;99.90;;;;;;4992451;28;20459;-66
2023/08/07 01:49:46;;;;;;;918.60;855.37;;;12.40;99.90;;;;;;4995013;28;20453;-65
2023/08/07 01:52:13;;;;;;;937.33;872.93;;;12.40;99.90;;;;;;4995493;28;20456;-65
2023/08/07 01:54:41;;;;;;;777.03;719.67;;;12.40;99.90;;;;;;4996039;28;20458;-65
2023/08/07 01:57:08;;;;;;;826.37;766.30;;;12.40;99.90;;;;;;4995523;28;20454;-66
2023/08/07 01:59:34;;;;;;;781.17;723.87;;;12.40;99.90;;;;;;4995839;28;20485;-65
2023/08/07 02:02:01;;;;;;;949.40;885.37;;;12.40;99.90;;;;;;4995263;28;20456;-66
2023/08/07 02:04:28;;;;;;;971.43;905.93;;;12.40;99.90;;;;;;5009702;28;20556;-66
2023/08/07 02:06:55;;;;;;;1006.97;938.37;;;12.40;99.90;;;;;;5015081;28;20459;-66
2023/08/07 02:09:22;;;;;;;896.00;832.87;;;12.30;99.90;;;;;;5014933;28;20441;-66
2023/08/07 02:11:50;;;;;;;988.50;921.40;;;12.30;99.90;;;;;;5014340;28;20450;-66
2023/08/07 02:14:17;;;;;;;1012.63;940.70;;;12.30;99.90;;;;;;5015181;28;20814;-65
2023/08/07 02:16:44;;;;;;;986.73;914.43;;;12.30;99.90;;;;;;5014984;28;20455;-66
2023/08/07 02:19:11;;;;;;;966.70;892.67;;;12.20;99.90;;;;;;5013182;28;20534;-66
2023/08/07 02:21:38;;;;;;;987.03;912.33;;;12.20;99.90;;;;;;4994932;28;20458;-66
2023/08/07 02:24:05;;;;;;;1028.10;956.23;;;12.20;99.90;;;;;;4993826;28;20456;-66
2023/08/07 02:26:32;;;;;;;986.27;911.77;;;12.20;99.90;;;;;;4995050;28;20465;-67
2023/08/07 02:29:00;;;;;;;963.10;888.10;;;12.20;99.90;;;;;;4995135;28;20447;-67
2023/08/07 02:31:27;;;;;;;965.13;890.33;;;12.20;99.90;;;;;;4994669;28;20454;-67
2023/08/07 02:33:54;;;;;;;983.33;909.83;;;12.20;99.90;;;;;;4994804;28;20959;-66
2023/08/07 02:36:21;;;;;;;1012.30;939.30;;;12.20;99.90;;;;;;4994785;28;20458;-66
2023/08/07 02:38:47;;;;;;;1021.47;948.43;;;12.20;99.90;;;;;;4994677;28;20478;-66
2023/08/07 02:41:14;;;;;;;1018.87;946.43;;;12.20;99.90;;;;;;4994515;28;21022;-66
2023/08/07 02:43:41;;;;;;;1005.60;936.93;;;12.20;99.90;;;;;;4994661;28;20451;-67
2023/08/07 02:46:09;;;;;;;1014.57;943.70;;;12.20;99.90;;;;;;4994866;28;20455;-66
2023/08/07 02:48:36;;;;;;;1019.53;948.03;;;12.20;99.90;;;;;;4994695;28;20657;-66
2023/08/07 02:51:03;;;;;;;1013.37;942.50;;;12.20;99.90;;;;;;4994843;28;20457;-67
2023/08/07 02:53:30;;;;;;;1019.50;948.20;;;12.20;99.90;;;;;;4994483;28;20541;-67
2023/08/07 02:55:56;;;;;;;1010.97;940.67;;;12.10;99.90;;;;;;4994866;28;20459;-66
2023/08/07 02:58:23;;;;;;;936.10;871.80;;;12.10;99.90;;;;;;4995735;28;20481;-66
2023/08/07 03:00:50;;;;;;;969.43;902.63;;;12.10;99.90;;;;;;4994174;28;21025;-67
2023/08/07 03:03:18;;;;;;;1027.33;955.13;;;12.10;99.90;;;;;;4994440;28;20553;-67
2023/08/07 03:05:50;;;;;;;1032.57;958.80;;;12.10;99.90;;;;;;4994381;28;20450;-68
2023/08/07 03:08:17;;;;;;;1036.67;962.30;;;12.00;99.90;;;;;;4994166;28;20458;-67
2023/08/07 03:10:50;;;;;;;1015.37;940.07;;;12.00;99.90;;;;;;4994233;28;20553;-67
2023/08/07 03:13:17;;;;;;;1007.80;933.30;;;12.00;99.90;;;;;;4994405;28;20534;-67
2023/08/07 03:15:44;;;;;;;1003.77;929.07;;;11.90;99.90;;;;;;4994131;28;20954;-66
2023/08/07 03:18:10;;;;;;;1012.70;937.83;;;11.90;99.90;;;;;;4993761;28;20458;-66
2023/08/07 03:20:39;;;;;;;1018.30;942.73;;;11.90;99.90;;;;;;4993897;28;20934;-67
2023/08/07 03:23:05;;;;;;;1017.03;940.87;;;12.00;99.90;;;;;;4993896;28;20951;-66
2023/08/07 03:25:32;;;;;;;1021.40;944.40;;;12.00;99.90;;;;;;4994091;28;20454;-67
2023/08/07 03:27:59;;;;;;;1034.57;956.47;;;12.00;99.90;;;;;;4997198;28;20459;-66
2023/08/07 03:30:26;;;;;;;1035.40;957.00;;;12.00;99.90;;;;;;5009830;28;20455;-66
2023/08/07 03:32:53;;;;;;;1028.27;949.97;;;12.00;99.90;;;;;;5013108;28;20548;-66
2023/08/07 03:35:20;;;;;;;1028.43;950.23;;;12.00;99.90;;;;;;5013292;28;20453;-67
2023/08/07 03:37:48;;;;;;;1022.80;945.60;;;12.00;99.90;;;;;;5011616;28;20457;-67
2023/08/07 03:40:15;;;;;;;1038.50;960.10;;;12.00;99.90;;;;;;5008152;28;20487;-66
2023/08/07 03:42:42;;;;;;;1053.97;975.47;;;12.10;99.90;;;;;;5004933;28;20450;-66
2023/08/07 03:45:09;;;;;;;1063.17;984.10;;;12.10;99.90;;;;;;5001083;28;20457;-66
2023/08/07 03:47:36;;;;;;;1066.10;987.50;;;12.10;99.90;;;;;;5010281;28;20453;-68
2023/08/07 03:50:03;;;;;;;1064.07;984.87;;;12.10;99.90;;;;;;4998896;28;20515;-67
2023/08/07 03:52:30;;;;;;;1057.63;978.23;;;12.10;99.90;;;;;;5001269;28;20457;-66
2023/08/07 03:54:58;;;;;;;1063.50;984.40;;;12.10;99.90;;;;;;5008476;28;20805;-67
2023/08/07 03:57:25;;;;;;;1073.03;994.27;;;12.10;99.90;;;;;;5013146;28;20453;-66
2023/08/07 03:59:54;;;;;;;1070.73;992.03;;;12.10;99.90;;;;;;5004195;28;20482;-66
2023/08/07 04:02:21;;;;;;;1068.43;989.90;;;12.10;99.90;;;;;;4993020;28;20505;-66
2023/08/07 04:04:48;;;;;;;1062.90;983.67;;;12.10;99.90;;;;;;4993444;28;20454;-66
2023/08/07 04:07:14;;;;;;;1054.00;973.90;;;12.10;99.90;;;;;;4993098;28;20450;-66
2023/08/07 04:09:41;;;;;;;1048.90;968.53;;;12.10;99.90;;;;;;4993201;28;20473;-67
2023/08/07 04:12:10;;;;;;;1051.83;971.63;;;12.10;99.90;;;;;;4992532;28;20907;-66
2023/08/07 04:14:37;;;;;;;1043.53;962.87;;;12.10;99.90;;;;;;5004403;28;20461;-66
2023/08/07 04:17:04;;;;;;;1037.27;956.47;;;12.10;99.90;;;;;;5010934;28;20458;-66
2023/08/07 04:19:31;;;;;;;1052.43;971.17;;;12.10;99.90;;;;;;5010812;28;20485;-66
2023/08/07 04:21:58;;;;;;;1048.67;967.50;;;12.10;99.90;;;;;;5002712;28;20975;-66
2023/08/07 04:24:25;;;;;;;1039.30;958.10;;;12.20;99.90;;;;;;5011092;28;20540;-66
2023/08/07 04:26:53;;;;;;;1039.50;958.43;;;12.20;99.90;;;;;;5009404;28;20525;-67
2023/08/07 04:29:21;;;;;;;1047.60;966.33;;;12.20;99.90;;;;;;5010729;28;20523;-66
2023/08/07 04:31:48;;;;;;;1054.17;972.57;;;12.20;99.90;;;;;;4995664;28;20458;-67
2023/08/07 04:34:15;;;;;;;1055.53;974.17;;;12.20;99.90;;;;;;5000537;28;20816;-67
2023/08/07 04:36:41;;;;;;;1047.90;966.33;;;12.20;99.90;;;;;;5011544;28;20449;-66
2023/08/07 04:39:08;;;;;;;1050.10;968.00;;;12.20;99.90;;;;;;4992721;28;20844;-67
2023/08/07 04:41:35;;;;;;;1066.40;985.40;;;12.20;99.90;;;;;;5004349;28;20457;-68
2023/08/07 04:44:02;;;;;;;1067.90;987.80;;;12.20;99.90;;;;;;4992875;28;20454;-69
2023/08/07 04:46:30;;;;;;;1076.23;995.90;;;12.30;99.90;;;;;;4993806;28;20545;-67
2023/08/07 04:48:58;;;;;;;1073.63;994.23;;;12.20;99.90;;;;;;4993751;28;20454;-67
2023/08/07 04:51:25;;;;;;;1079.63;999.60;;;12.30;99.90;;;;;;5006099;28;20512;-67
2023/08/07 04:53:52;;;;;;;1082.57;999.90;;;12.20;99.90;;;;;;4999369;28;20454;-67
2023/08/07 04:56:19;;;;;;;1093.57;999.90;;;12.30;99.90;;;;;;5011663;28;20453;-67
2023/08/07 04:58:46;;;;;;;1094.03;999.90;;;12.20;99.90;;;;;;5003565;28;20937;-67
2023/08/07 05:01:13;;;;;;;1093.00;999.90;;;12.30;99.90;;;;;;5004573;28;20541;-67
2023/08/07 05:03:41;;;;;;;1098.03;999.90;;;12.30;99.90;;;;;;5003468;28;20952;-66
2023/08/07 05:06:08;;;;;;;1099.63;999.90;;;12.30;99.90;;;;;;5010309;28;20463;-67
2023/08/07 05:08:35;;;;;;;1095.60;999.90;;;12.30;99.90;;;;;;5003567;28;20466;-67
2023/08/07 05:11:02;;;;;;;1086.33;999.90;;;12.30;99.90;;;;;;5011832;28;20445;-67
2023/08/07 05:13:29;;;;;;;1085.53;999.90;;;12.40;99.90;;;;;;5003976;28;20537;-67
2023/08/07 05:15:56;;;;;;;1063.00;978.30;;;12.40;99.90;;;;;;5003393;28;20461;-68
2023/08/07 05:18:22;;;;;;;1050.07;965.13;;;12.40;99.90;;;;;;4998219;28;20811;-67
2023/08/07 05:20:51;;;;;;;1015.40;930.50;;;12.40;99.90;;;;;;4999269;28;20506;-67
2023/08/07 05:23:17;;;;;;;1009.83;924.33;;;12.40;99.90;;;;;;5007118;28;20486;-67
2023/08/07 05:25:46;;;;;;;969.07;884.27;;;12.40;99.90;;;;;;5004171;28;20449;-67
2023/08/07 05:28:13;;;;;;;979.60;894.00;;;12.50;99.90;;;;;;5011116;28;20942;-67
2023/08/07 05:30:40;;;;;;;963.33;878.47;;;12.50;99.90;;;;;;5013241;28;20446;-67
2023/08/07 05:33:06;;;;;;;961.50;876.83;;;12.50;99.90;;;;;;4997194;28;20450;-66
2023/08/07 05:35:33;;;;;;;960.03;875.40;;;12.60;99.90;;;;;;5003965;28;20461;-67
2023/08/07 05:38:01;;;;;;;972.53;888.27;;;12.60;99.90;;;;;;5014797;28;20449;-67
2023/08/07 05:40:29;;;;;;;968.53;885.27;;;12.70;99.90;;;;;;5000289;28;20514;-67
2023/08/07 05:42:56;;;;;;;974.97;892.37;;;12.60;99.90;;;;;;5009425;28;20488;-66
2023/08/07 05:45:23;;;;;;;983.27;901.23;;;12.80;99.90;;;;;;4998519;28;20453;-67
2023/08/07 05:47:50;;;;;;;993.90;911.57;;;12.80;99.90;;;;;;4995799;28;20837;-66
2023/08/07 05:50:16;;;;;;;985.87;904.00;;;12.80;99.90;;;;;;5002842;28;20451;-67
2023/08/07 05:52:43;;;;;;;997.00;914.40;;;12.90;99.90;;;;;;5007263;28;20449;-67
2023/08/07 05:55:12;;;;;;;1003.77;921.57;;;12.90;99.90;;;;;;4999216;28;20545;-68
2023/08/07 05:57:38;;;;;;;997.23;915.50;;;12.90;99.90;;;;;;5011544;28;20454;-67
2023/08/07 06:00:07;;;;;;;997.97;916.60;;;12.90;99.90;;;;;;4996597;28;20474;-67
2023/08/07 06:02:34;;;;;;;1005.77;924.83;;;12.90;99.90;;;;;;5003289;28;20453;-68
2023/08/07 06:05:01;;;;;;;1019.60;937.40;;;12.90;99.90;;;;;;5005942;28;20453;-67
2023/08/07 06:07:28;;;;;;;1004.97;923.27;;;12.80;99.90;;;;;;5001340;28;20469;-67
2023/08/07 06:09:55;;;;;;;1009.40;928.20;;;12.90;99.90;;;;;;5014447;28;20449;-68
2023/08/07 06:12:23;;;;;;;1009.90;929.10;;;12.90;99.90;;;;;;5001860;28;20460;-69
2023/08/07 06:14:50;;;;;;;1007.77;927.77;;;12.90;99.90;;;;;;5014834;28;20524;-68
2023/08/07 06:17:16;;;;;;;1012.07;932.93;;;12.80;99.90;;;;;;4996178;28;20798;-67
2023/08/07 06:19:43;;;;;;;1012.33;933.63;;;12.70;99.90;;;;;;5001474;28;20563;-68
2023/08/07 06:22:10;;;;;;;1011.70;933.50;;;12.70;99.90;;;;;;5013144;28;20481;-68
2023/08/07 06:24:37;;;;;;;1003.03;925.40;;;12.70;99.90;;;;;;4999122;28;20460;-67
2023/08/07 06:27:05;;;;;;;1002.40;925.20;;;12.70;99.90;;;;;;5012834;28;20459;-67
2023/08/07 06:29:33;;;;;;;1006.13;928.73;;;12.70;99.90;;;;;;5012931;28;20473;-68
2023/08/07 06:32:00;;;;;;;1005.17;927.67;;;12.70;99.90;;;;;;5000318;28;20457;-68
2023/08/07 06:34:26;;;;;;;1005.43;928.13;;;12.70;99.90;;;;;;5002259;28;20458;-68
2023/08/07 06:36:53;;;;;;;989.80;913.30;;;12.80;99.90;;;;;;5007445;28;20540;-67
2023/08/07 06:39:20;;;;;;;972.80;897.20;;;12.80;99.90;;;;;;4998194;28;20505;-69
2023/08/07 06:41:47;;;;;;;944.27;868.87;;;12.80;99.90;;;;;;5009115;28;20453;-67
2023/08/07 06:44:14;;;;;;;995.70;920.93;;;12.60;99.90;;;;;;5003846;28;20473;-67
2023/08/07 06:46:42;;;;;;;1038.00;962.03;;;12.60;99.90;;;;;;5004740;28;20455;-68
2023/08/07 06:49:09;;;;;;;1020.80;944.70;;;12.50;99.90;;;;;;4995462;28;20942;-68
2023/08/07 06:51:36;;;;;;;1028.83;952.53;;;12.50;99.90;;;;;;5012469;28;20445;-67
2023/08/07 06:54:02;;;;;;;1022.37;947.30;;;12.50;99.90;;;;;;5013507;28;20484;-67
2023/08/07 06:56:29;;;;;;;1013.03;937.23;;;12.50;99.90;;;;;;5013704;28;20450;-67
2023/08/07 06:58:56;;;;;;;997.00;920.63;;;12.60;99.90;;;;;;4999286;28;20465;-68
2023/08/07 07:01:23;;;;;;;997.70;922.50;;;12.60;99.90;;;;;;5006058;28;20485;-68
2023/08/07 07:03:52;;;;;;;1010.40;934.33;;;12.60;99.90;;;;;;5014424;28;20460;-67
2023/08/07 07:06:20;;;;;;;992.25;912.45;;;12.60;99.90;;;;;;5012827;28;20458;-68
2023/08/07 07:08:47;;;;;;;1018.30;938.90;;;12.60;99.90;;;;;;5012660;28;20947;-67
2023/08/07 07:11:14;;;;;;;1016.13;939.63;;;12.80;99.90;;;;;;5013369;28;20587;-68
2023/08/07 07:13:41;;;;;;;1050.07;975.83;;;12.80;99.90;;;;;;5013371;28;20460;-68
2023/08/07 07:16:08;;;;;;;1054.00;978.93;;;12.90;99.90;;;;;;5013154;28;21371;-68
2023/08/07 07:18:35;;;;;;;1035.30;959.40;;;13.00;99.90;;;;;;5013288;28;20842;-69
2023/08/07 07:21:03;;;;;;;1023.73;946.97;;;12.90;99.90;;;;;;5012914;28;20485;-67
2023/08/07 07:23:30;;;;;;;1016.23;939.97;;;13.00;99.90;;;;;;5013229;28;20450;-67
2023/08/07 07:25:57;;;;;;;1003.23;927.70;;;12.90;99.90;;;;;;5013064;28;20489;-67
2023/08/07 07:28:24;;;;;;;1007.40;932.33;;;13.00;99.90;;;;;;5012902;28;20453;-67
2023/08/07 07:30:51;;;;;;;985.90;911.40;;;13.00;99.90;;;;;;5012963;28;20449;-67
2023/08/07 07:33:18;;;;;;;988.73;913.70;;;13.00;99.90;;;;;;5012931;28;20454;-67
2023/08/07 07:35:45;;;;;;;1012.70;938.37;;;13.10;99.90;;;;;;5013029;28;20461;-65
2023/08/07 07:38:15;;;;;;;1019.37;945.50;;;13.10;99.90;;;;;;5012722;28;20454;-67
2023/08/07 07:40:42;;;;;;;1019.23;945.77;;;13.10;99.90;;;;;;5012765;28;20524;-67
2023/08/07 07:43:09;;;;;;;1031.13;955.50;;;13.20;99.90;;;;;;5013238;28;20457;-66
2023/08/07 07:45:36;;;;;;;1052.17;974.20;;;13.20;99.90;;;;;;5012477;28;20449;-66
2023/08/07 07:48:03;;;;;;;1058.87;981.43;;;13.30;99.90;;;;;;5012336;28;20453;-67
2023/08/07 07:50:30;;;;;;;1051.67;972.67;;;13.50;99.90;;;;;;5012830;28;20952;-67
2023/08/07 07:52:57;;;;;;;1030.93;951.33;;;13.60;99.90;;;;;;5013044;28;20454;-68
2023/08/07 07:55:26;;;;;;;1013.03;933.23;;;13.60;99.90;;;;;;5012969;28;20814;-68
2023/08/07 07:57:52;;;;;;;1002.63;921.33;;;13.70;99.90;;;;;;5013067;28;20460;-67
2023/08/07 08:00:19;;;;;;;1049.72;964.58;;;13.70;99.90;;;;;;5011964;28;20465;-68
2023/08/07 08:02:47;;;;;;;1052.87;972.03;;;13.80;99.90;;;;;;5011859;28;20281;-68
2023/08/07 08:05:15;;;;;;;1083.83;999.90;;;13.70;99.90;;;;;;5012692;28;20838;-67
2023/08/07 08:07:43;;;;;;;1075.77;996.37;;;13.70;99.90;;;;;;5012994;28;20449;-67
2023/08/07 08:10:11;;;;;;;1075.20;997.50;;;13.60;99.90;;;;;;5012751;28;20445;-67
2023/08/07 08:12:39;;;;;;;1070.20;994.10;;;13.60;99.90;;;;;;5011635;28;20454;-68
2023/08/07 08:15:06;;;;;;;1042.00;965.40;;;13.60;99.90;;;;;;5012671;28;20449;-68
2023/08/07 08:17:33;;;;;;;1041.00;964.40;;;13.50;99.90;;;;;;5012530;28;20472;-67
2023/08/07 08:20:00;;;;;;;1033.00;961.77;;;13.50;99.90;;;;;;5012676;28;20458;-67
2023/08/07 08:22:27;;;;;;;1042.47;967.10;;;13.40;99.90;;;;;;5012669;28;20449;-67
2023/08/07 08:24:53;;;;;;;1014.33;939.23;;;13.40;99.90;;;;;;5012532;28;20464;-67
2023/08/07 08:27:21;;;;;;;1017.57;942.53;;;13.50;99.90;;;;;;5012674;28;20484;-68
2023/08/07 08:29:49;;;;;;;1030.80;954.47;;;13.70;99.90;;;;;;5012387;28;20456;-68
2023/08/07 08:32:16;;;;;;;1025.50;947.80;;;13.90;99.90;;;;;;5012607;28;20807;-67
2023/08/07 08:34:43;;;;;;;1016.23;937.73;;;14.10;99.90;;;;;;5012522;28;20969;-68
2023/08/07 08:37:11;;;;;;;1011.97;932.03;;;14.20;99.90;;;;;;5012487;28;20461;-68
2023/08/07 08:39:38;;;;;;;1001.73;920.10;;;14.50;99.90;;;;;;5012411;28;21037;-68
2023/08/07 08:42:05;;;;;;;989.73;906.90;;;14.70;99.90;;;;;;5012194;28;20853;-67
2023/08/07 08:44:36;;;;;;;976.23;892.33;;;14.90;99.90;;;;;;5012274;28;20457;-68
2023/08/07 08:47:07;;;;;;;979.80;895.40;;;15.00;99.90;;;;;;5012644;28;20896;-68
2023/08/07 08:49:36;;;;;;;998.97;914.03;;;15.20;99.90;;;;;;5012495;28;20462;-68
2023/08/07 08:52:05;;;;;;;1038.20;951.57;;;15.40;99.90;;;;;;5012095;28;20452;-69
2023/08/07 08:54:33;;;;;;;1046.03;959.00;;;15.60;99.90;;;;;;5012228;28;20479;-67
2023/08/07 08:57:00;;;;;;;1044.17;956.97;;;15.70;99.90;;;;;;5012772;28;20831;-67
2023/08/07 08:59:28;;;;;;;1061.93;972.33;;;15.80;99.90;;;;;;5016308;28;20453;-67
2023/08/07 09:01:55;;;;;;;1065.13;976.10;;;15.60;99.90;;;;;;5016491;28;20485;-66
2023/08/07 09:04:23;;;;;;;1069.27;981.10;;;15.60;99.90;;;;;;5016221;28;20449;-68
2023/08/07 09:06:51;;;;;;;1054.87;967.77;;;15.60;99.90;;;;;;5016135;28;20548;-68
2023/08/07 09:09:21;;;;;;;1052.77;966.90;;;15.70;99.90;;;;;;5015880;28;20453;-68
2023/08/07 09:11:49;;;;;;;1045.40;960.70;;;15.90;99.90;;;;;;5016069;28;20548;-67
2023/08/07 09:14:18;;;;;;;1046.83;961.90;;;16.10;99.90;;;;;;5016165;28;20457;-68
2023/08/07 09:16:46;;;;;;;1050.17;964.17;;;16.20;99.90;;;;;;5016112;28;20823;-68
2023/08/07 09:19:14;;;;;;;1074.37;987.03;;;16.20;99.90;;;;;;5015855;28;20457;-69
2023/08/07 09:21:42;;;;;;;1076.33;989.90;;;16.30;99.90;;;;;;5015633;28;20487;-68
2023/08/07 09:24:09;;;;;;;1077.33;991.83;;;16.40;99.90;;;;;;5015732;28;20457;-68
2023/08/07 09:26:36;;;;;;;1078.60;992.77;;;16.50;99.90;;;;;;5015765;28;20540;-68
2023/08/07 09:29:04;;;;;;;1099.03;999.90;;;16.50;99.90;;;;;;5015860;28;20459;-68
2023/08/07 09:31:32;;;;;;;1100.67;999.90;;;16.40;99.90;;;;;;5015656;28;20910;-68
2023/08/07 09:34:03;;;;;;;1090.87;999.90;;;16.50;99.90;;;;;;5015820;28;20859;-68
2023/08/07 09:36:31;;;;;;;1083.43;999.90;;;16.30;99.90;;;;;;5015517;28;20453;-68
2023/08/07 09:39:01;;;;;;;1093.33;999.90;;;16.70;99.90;;;;;;5015734;28;20733;-68
2023/08/07 09:41:29;;;;;;;1068.83;997.13;;;17.00;99.90;;;;;;5015555;28;20481;-68
2023/08/07 09:43:56;;;;;;;1052.70;984.10;;;17.10;99.90;;;;;;5015614;28;20540;-68
2023/08/07 09:46:23;;;;;;;1034.70;968.60;;;17.10;98.90;;;;;;5015564;28;20476;-69
2023/08/07 09:48:50;;;;;;;999.80;938.80;;;17.60;97.50;;;;;;5015243;28;20467;-69
2023/08/07 09:51:17;;;;;;;973.57;917.13;;;17.60;94.30;;;;;;5015043;28;20546;-69
2023/08/07 09:53:44;;;;;;;950.27;895.93;;;17.40;94.00;;;;;;5015483;28;20797;-69
2023/08/07 09:56:14;;;;;;;881.33;833.13;;;18.00;95.80;;;;;;5015221;28;20452;-69
2023/08/07 09:58:47;;;;;;;856.50;810.80;;;18.20;90.90;;;;;;5015264;28;20488;-70
2023/08/07 10:01:17;;;;;;;853.43;808.83;;;18.60;91.10;;;;;;5014887;28;20477;-69
2023/08/07 10:03:44;;;;;;;704.17;669.37;;;18.50;91.00;;;;;;5015413;28;20834;-70
2023/08/07 10:06:12;;;;;;;589.30;561.47;;;18.60;84.80;;;;;;5015031;28;20457;-69
2023/08/07 10:08:40;;;;;;;474.67;454.00;;;19.00;85.10;;;;;;5014525;28;20482;-69
2023/08/07 10:11:09;;;;;;;413.03;396.23;;;19.20;85.30;;;;;;5014594;28;20450;-68
2023/08/07 10:13:38;;;;;;;302.20;291.20;;;19.50;79.10;;;;;;5015014;28;20489;-68
2023/08/07 10:16:05;;;;;;;238.83;230.30;;;19.40;71.20;;;;;;5014740;28;20460;-69
2023/08/07 10:18:32;;;;;;;99.73;95.57;;;20.10;74.30;;;;;;5014834;28;20540;-70
2023/08/07 10:21:00;;;;;;;63.93;61.03;;;20.50;58.00;;;;;;5014513;28;20485;-70
2023/08/07 10:23:27;;;;;;;44.03;41.93;;;20.60;53.80;;;;;;5014745;28;20453;-69
2023/08/07 10:25:55;;;;;;;32.95;31.35;;;21.00;54.10;;;;;;5014025;28;20482;-74
2023/08/07 10:28:24;;;;;;;29.20;27.80;;;20.90;49.90;;;;;;5015017;28;20289;-73
2023/08/07 10:30:53;;;;;;;28.90;27.50;;;20.70;45.90;;;;;;5014858;28;20457;-74
2023/08/07 10:33:20;;;;;;;27.77;26.47;;;20.90;51.70;;;;;;5015278;28;20485;-72
2023/08/07 10:35:49;;;;;;;25.10;23.90;;;21.60;45.80;;;;;;5015248;28;20816;-72
2023/08/07 10:38:20;;;;;;;25.50;24.30;;;21.10;37.20;;;;;;5014873;28;20446;-75
2023/08/07 10:41:01;;;;;;;21.70;20.70;;;22.00;41.00;;;;;;5014748;28;20544;-71
2023/08/07 10:43:28;;;;;;;19.60;18.70;;;21.40;36.60;;;;;;5014964;28;20457;-72
2023/08/07 10:46:04;;;;;;;17.60;16.70;;;20.80;36.90;;;;;;5014245;28;20457;-71
2023/08/07 10:48:38;;;;;;;15.80;15.00;;;20.30;37.90;;;;;;5014695;28;20456;-71
2023/08/07 10:51:05;;;;;;;16.57;15.77;;;20.70;40.60;;;;;;5014547;28;20450;-72
2023/08/07 10:53:33;;;;;;;15.97;15.17;;;21.20;45.50;;;;;;5014589;28;20536;-74
2023/08/07 10:56:03;;;;;;;15.37;14.57;;;21.80;34.50;;;;;;5014896;28;20460;-74
2023/08/07 10:58:32;;;;;;;14.97;14.17;;;21.60;28.20;;;;;;5014596;28;20489;-72
2023/08/07 11:01:20;;;;;;;14.70;13.90;;;22.20;37.30;;;;;;5014152;28;20487;-73
2023/08/07 11:03:50;;;;;;;14.20;13.40;;;22.30;37.40;;;;;;5014532;28;20537;-73
2023/08/07 11:06:17;;;;;;;14.27;13.47;;;22.50;21.50;;;;;;5013989;28;20453;-72
2023/08/07 11:08:44;;;;;;;11.90;11.20;;;22.30;21.40;;;;;;5013877;28;20456;-72
2023/08/07 11:11:11;;;;;;;10.30;9.70;;;21.20;22.10;;;;;;5013964;28;20453;-71
2023/08/07 11:13:38;;;;;;;9.43;8.83;;;20.80;27.60;;;;;;5014019;28;20453;-73
2023/08/07 11:16:06;;;;;;;9.50;8.90;;;20.90;20.40;;;;;;5006090;28;20481;-72
2023/08/07 11:18:35;;;;;;;9.47;8.87;;;21.20;25.80;;;;;;4993772;28;20601;-70
2023/08/07 11:21:02;;;;;;;9.50;8.80;;;21.50;23.30;;;;;;4994075;28;20459;-71
2023/08/07 11:23:29;;;;;;;7.50;7.00;;;22.20;21.30;;;;;;4994074;28;20464;-72
2023/08/07 11:25:57;;;;;;;6.03;5.53;;;22.40;18.00;;;;;;4994388;28;20454;-70
2023/08/07 11:28:24;;;;;;;4.77;4.27;;;21.60;18.30;;;;;;4994461;28;20541;-70
2023/08/07 11:30:52;;;;;;;4.50;3.90;;;21.00;20.40;;;;;;4992559;28;20459;-73
2023/08/07 11:33:20;;;;;;;4.30;3.23;;;20.60;22.10;;;;;;4993838;28;20454;-72
2023/08/07 11:35:49;;;;;;;4.40;3.70;;;20.50;25.40;;;;;;4993797;28;20458;-71
2023/08/07 11:38:29;;;;;;;7.90;4.93;;;21.30;20.60;;;;;;4993428;28;20482;-71
2023/08/07 11:40:58;;;;;;;4.20;3.10;;;21.90;13.60;;;;;;4993568;28;20501;-71
2023/08/07 11:43:25;;;;;;;4.10;2.63;;;21.80;13.50;;;;;;4993909;28;20458;-72
2023/08/07 11:45:52;;;;;;;5.37;3.37;;;22.40;13.90;;;;;;4993872;28;20450;-71
2023/08/07 11:48:19;;;;;;;4.00;2.23;;;22.80;10.90;;;;;;4993937;28;20820;-72
2023/08/07 11:50:48;;;;;;;4.10;2.23;;;22.90;6.70;;;;;;4993483;28;20934;-72
2023/08/07 11:53:15;;;;;;;4.00;1.90;;;22.70;6.40;;;;;;4993748;28;20462;-72
2023/08/07 11:55:48;;;;;;;3.80;1.30;;;22.20;6.80;;;;;;4993940;28;20481;-71
2023/08/07 11:58:15;;;;;;;3.77;1.17;;;22.30;13.90;;;;;;4993868;28;20878;-72
2023/08/07 12:00:47;;;;;;;3.70;1.00;;;21.90;6.10;;;;;;4994026;28;20541;-75
2023/08/07 12:03:28;;;;;;;3.70;1.00;;;21.70;7.00;;;;;;4993823;28;20505;-74
2023/08/07 12:05:57;;;;;;;3.87;1.30;;;22.30;6.40;;;;;;4993849;28;21018;-74
2023/08/07 12:08:24;;;;;;;3.80;1.10;;;22.10;6.10;;;;;;5006692;28;20450;-73
2023/08/07 12:10:52;;;;;;;4.00;1.37;;;22.50;10.20;;;;;;5012689;28;20548;-74